sensor_id;sensor_type;location;lat;lon;timestamp;pressure;altitude;pressure_sealevel;temperature;humidity
60345;BME280;46188;52.324;8.032;2023-03-20T00:01:20;100674.75;;;7.71;100.00
60345;BME280;46188;52.324;8.032;2023-03-20T00:03:46;100675.69;;;7.73;100.00
60345;BME280;46188;52.324;8.032;2023-03-20T00:06:16;100684.44;;;7.74;100.00
60345;BME280;46188;52.324;8.032;2023-03-20T00:08:42;100684.41;;;7.72;100.00
60345;BME280;46188;52.324;8.032;2023-03-20T00:11:33;100690.47;;;7.70;100.00
60345;BME280;46188;52.324;8.032;2023-03-20T00:14:08;100679.09;;;7.71;100.00
60345;BME280;46188;52.324;8.032;2023-03-20T00:16:35;100680.94;;;7.73;100.00
60345;BME280;46188;52.324;8.032;2023-03-20T00:19:02;100668.69;;;7.74;100.00
60345;BME280;46188;52.324;8.032;2023-03-20T00:21:28;100668.69;;;7.74;100.00
60345;BME280;46188;52.324;8.032;2023-03-20T00:23:54;100671.34;;;7.75;100.00
60345;BME280;46188;52.324;8.032;2023-03-20T00:26:24;100679.22;;;7.75;100.00
60345;BME280;46188;52.324;8.032;2023-03-20T00:28:50;100673.16;;;7.76;100.00
60345;BME280;46188;52.324;8.032;2023-03-20T00:31:23;100678.22;;;7.70;100.00
60345;BME280;46188;52.324;8.032;2023-03-20T00:33:50;100683.50;;;7.72;100.00
60345;BME280;46188;52.324;8.032;2023-03-20T00:36:15;100679.28;;;7.77;100.00
60345;BME280;46188;52.324;8.032;2023-03-20T00:38:41;100684.66;;;7.82;100.00
60345;BME280;46188;52.324;8.032;2023-03-20T00:41:24;100682.03;;;7.82;100.00
60345;BME280;46188;52.324;8.032;2023-03-20T00:43:51;100689.03;;;7.83;100.00
60345;BME280;46188;52.324;8.032;2023-03-20T00:46:18;100686.53;;;7.87;100.00
60345;BME280;46188;52.324;8.032;2023-03-20T00:48:43;100684.81;;;7.88;100.00
60345;BME280;46188;52.324;8.032;2023-03-20T00:51:09;100683.09;;;7.90;100.00
60345;BME280;46188;52.324;8.032;2023-03-20T00:53:34;100684.84;;;7.91;100.00
60345;BME280;46188;52.324;8.032;2023-03-20T00:56:00;100688.41;;;7.91;100.00
60345;BME280;46188;52.324;8.032;2023-03-20T00:58:26;100674.34;;;7.91;100.00
60345;BME280;46188;52.324;8.032;2023-03-20T01:00:52;100665.66;;;7.92;100.00
60345;BME280;46188;52.324;8.032;2023-03-20T01:03:23;100656.06;;;7.94;100.00
60345;BME280;46188;52.324;8.032;2023-03-20T01:05:50;100654.31;;;7.93;100.00
60345;BME280;46188;52.324;8.032;2023-03-20T01:08:20;100655.09;;;7.90;100.00
60345;BME280;46188;52.324;8.032;2023-03-20T01:10:48;100661.19;;;7.88;100.00
60345;BME280;46188;52.324;8.032;2023-03-20T01:13:23;100663.84;;;7.89;100.00
60345;BME280;46188;52.324;8.032;2023-03-20T01:15:49;100661.16;;;7.86;100.00
60345;BME280;46188;52.324;8.032;2023-03-20T01:18:16;100664.56;;;7.84;100.00
60345;BME280;46188;52.324;8.032;2023-03-20T01:20:42;100676.59;;;7.75;100.00
60345;BME280;46188;52.324;8.032;2023-03-20T01:23:09;100681.72;;;7.71;100.00
60345;BME280;46188;52.324;8.032;2023-03-20T01:25:35;100688.56;;;7.64;100.00
60345;BME280;46188;52.324;8.032;2023-03-20T01:28:01;100693.72;;;7.61;100.00
60345;BME280;46188;52.324;8.032;2023-03-20T01:30:30;100697.13;;;7.57;100.00
60345;BME280;46188;52.324;8.032;2023-03-20T01:32:58;100704.16;;;7.60;100.00
60345;BME280;46188;52.324;8.032;2023-03-20T01:35:26;100707.69;;;7.60;100.00
60345;BME280;46188;52.324;8.032;2023-03-20T01:37:52;100711.25;;;7.62;100.00
60345;BME280;46188;52.324;8.032;2023-03-20T01:40:30;100714.66;;;7.58;100.00
60345;BME280;46188;52.324;8.032;2023-03-20T01:43:00;100716.31;;;7.56;100.00
60345;BME280;46188;52.324;8.032;2023-03-20T01:45:33;100723.34;;;7.57;100.00
60345;BME280;46188;52.324;8.032;2023-03-20T01:48:01;100720.72;;;7.57;100.00
60345;BME280;46188;52.324;8.032;2023-03-20T01:50:29;100713.78;;;7.59;100.00
60345;BME280;46188;52.324;8.032;2023-03-20T01:53:24;100695.50;;;7.62;100.00
60345;BME280;46188;52.324;8.032;2023-03-20T01:55:53;100701.66;;;7.64;100.00
60345;BME280;46188;52.324;8.032;2023-03-20T01:58:27;100706.16;;;7.68;100.00
60345;BME280;46188;52.324;8.032;2023-03-20T02:00:56;100708.00;;;7.72;100.00
60345;BME280;46188;52.324;8.032;2023-03-20T02:03:23;100712.50;;;7.76;100.00
60345;BME280;46188;52.324;8.032;2023-03-20T02:05:49;100708.19;;;7.79;100.00
60345;BME280;46188;52.324;8.032;2023-03-20T02:08:27;100705.63;;;7.82;100.00
60345;BME280;46188;52.324;8.032;2023-03-20T02:10:53;100707.38;;;7.81;100.00
60345;BME280;46188;52.324;8.032;2023-03-20T02:13:19;100700.31;;;7.79;100.00
60345;BME280;46188;52.324;8.032;2023-03-20T02:16:05;100697.63;;;7.77;100.00
60345;BME280;46188;52.324;8.032;2023-03-20T02:18:32;100688.88;;;7.76;100.00
60345;BME280;46188;52.324;8.032;2023-03-20T02:30:10;100671.34;;;7.75;100.00
60345;BME280;46188;52.324;8.032;2023-03-20T02:36:14;100686.19;;;7.73;100.00
60345;BME280;46188;52.324;8.032;2023-03-20T02:38:53;100687.97;;;7.76;100.00
60345;BME280;46188;52.324;8.032;2023-03-20T02:41:21;100687.94;;;7.73;100.00
60345;BME280;46188;52.324;8.032;2023-03-20T02:49:41;100692.22;;;7.71;100.00
60345;BME280;46188;52.324;8.032;2023-03-20T02:52:29;100693.97;;;7.70;100.00
60345;BME280;46188;52.324;8.032;2023-03-20T02:55:12;100705.19;;;7.65;100.00
60345;BME280;46188;52.324;8.032;2023-03-20T03:01:12;100694.06;;;7.73;100.00
60345;BME280;46188;52.324;8.032;2023-03-20T03:03:43;100692.19;;;7.69;100.00
60345;BME280;46188;52.324;8.032;2023-03-20T03:06:17;100693.97;;;7.70;100.00
60345;BME280;46188;52.324;8.032;2023-03-20T03:08:49;100694.06;;;7.73;100.00
60345;BME280;46188;52.324;8.032;2023-03-20T03:11:16;100692.44;;;7.79;100.00
60345;BME280;46188;52.324;8.032;2023-03-20T03:13:52;100698.44;;;7.74;100.00
60345;BME280;46188;52.324;8.032;2023-03-20T03:16:25;100695.81;;;7.74;100.00
60345;BME280;46188;52.324;8.032;2023-03-20T03:19:00;100694.25;;;7.81;100.00
60345;BME280;46188;52.324;8.032;2023-03-20T03:21:28;100692.53;;;7.82;100.00
60345;BME280;46188;52.324;8.032;2023-03-20T03:23:54;100688.09;;;7.81;100.00
60345;BME280;46188;52.324;8.032;2023-03-20T03:26:27;100681.09;;;7.80;100.00
60345;BME280;46188;52.324;8.032;2023-03-20T03:29:06;100683.78;;;7.83;100.00
60345;BME280;46188;52.324;8.032;2023-03-20T03:31:36;100683.78;;;7.83;100.00
60345;BME280;46188;52.324;8.032;2023-03-20T03:34:01;100673.22;;;7.80;100.00
60345;BME280;46188;52.324;8.032;2023-03-20T03:39:39;100666.94;;;7.74;100.00
60345;BME280;46188;52.324;8.032;2023-03-20T03:42:22;100657.34;;;7.75;100.00
60345;BME280;46188;52.324;8.032;2023-03-20T03:45:09;100658.19;;;7.74;100.00
60345;BME280;46188;52.324;8.032;2023-03-20T03:47:42;100653.78;;;7.71;100.00
60345;BME280;46188;52.324;8.032;2023-03-20T03:50:16;100645.13;;;7.75;100.00
60345;BME280;46188;52.324;8.032;2023-03-20T03:52:43;100643.31;;;7.73;100.00
60345;BME280;46188;52.324;8.032;2023-03-20T03:55:18;100650.44;;;7.79;100.00
60345;BME280;46188;52.324;8.032;2023-03-20T03:57:52;100647.81;;;7.79;100.00
60345;BME280;46188;52.324;8.032;2023-03-20T04:00:22;100657.53;;;7.81;100.00
60345;BME280;46188;52.324;8.032;2023-03-20T04:02:52;100655.78;;;7.82;100.00
60345;BME280;46188;52.324;8.032;2023-03-20T04:05:19;100652.31;;;7.84;100.00
60345;BME280;46188;52.324;8.032;2023-03-20T04:07:46;100656.84;;;7.90;100.00
60345;BME280;46188;52.324;8.032;2023-03-20T04:10:13;100655.09;;;7.90;100.00
60345;BME280;46188;52.324;8.032;2023-03-20T04:12:41;100647.97;;;7.85;100.00
60345;BME280;46188;52.324;8.032;2023-03-20T04:15:07;100640.19;;;7.88;100.00
60345;BME280;46188;52.324;8.032;2023-03-20T04:17:33;100643.72;;;7.90;100.00
60345;BME280;46188;52.324;8.032;2023-03-20T04:19:58;100636.78;;;7.92;100.00
60345;BME280;46188;52.324;8.032;2023-03-20T04:22:24;100646.50;;;7.96;100.00
60345;BME280;46188;52.324;8.032;2023-03-20T04:24:49;100638.63;;;7.96;100.00
60345;BME280;46188;52.324;8.032;2023-03-20T04:27:15;100645.47;;;7.91;100.00
60345;BME280;46188;52.324;8.032;2023-03-20T04:29:41;100647.19;;;7.89;100.00
60345;BME280;46188;52.324;8.032;2023-03-20T04:32:07;100648.91;;;7.87;100.00
60345;BME280;46188;52.324;8.032;2023-03-20T04:34:32;100653.19;;;7.83;100.00
60345;BME280;46188;52.324;8.032;2023-03-20T04:36:57;100654.16;;;7.87;100.00
60345;BME280;46188;52.324;8.032;2023-03-20T04:39:25;100648.03;;;7.86;100.00
60345;BME280;46188;52.324;8.032;2023-03-20T04:41:51;100641.06;;;7.88;100.00
60345;BME280;46188;52.324;8.032;2023-03-20T04:44:16;100638.47;;;7.90;100.00
60345;BME280;46188;52.324;8.032;2023-03-20T04:46:41;100641.16;;;7.91;100.00
60345;BME280;46188;52.324;8.032;2023-03-20T04:49:06;100641.19;;;7.93;100.00
60345;BME280;46188;52.324;8.032;2023-03-20T04:51:32;100652.34;;;7.86;100.00
60345;BME280;46188;52.324;8.032;2023-03-20T04:53:57;100652.28;;;7.83;100.00
60345;BME280;46188;52.324;8.032;2023-03-20T04:56:22;100657.59;;;7.86;100.00
60345;BME280;46188;52.324;8.032;2023-03-20T04:58:47;100659.31;;;7.84;100.00
60345;BME280;46188;52.324;8.032;2023-03-20T05:01:13;100656.50;;;7.76;100.00
60345;BME280;46188;52.324;8.032;2023-03-20T05:03:38;100656.41;;;7.71;100.00
60345;BME280;46188;52.324;8.032;2023-03-20T05:06:03;100658.94;;;7.68;100.00
60345;BME280;46188;52.324;8.032;2023-03-20T05:08:29;100648.19;;;7.59;100.00
60345;BME280;46188;52.324;8.032;2023-03-20T05:10:55;100650.69;;;7.54;100.00
60345;BME280;46188;52.324;8.032;2023-03-20T05:13:20;100649.81;;;7.54;100.00
60345;BME280;46188;52.324;8.032;2023-03-20T05:15:45;100646.31;;;7.53;100.00
60345;BME280;46188;52.324;8.032;2023-03-20T05:18:12;100648.97;;;7.55;100.00
60345;BME280;46188;52.324;8.032;2023-03-20T05:20:37;100642.94;;;7.59;100.00
60345;BME280;46188;52.324;8.032;2023-03-20T05:23:02;100642.13;;;7.60;100.00
60345;BME280;46188;52.324;8.032;2023-03-20T05:25:28;100645.66;;;7.62;100.00
60345;BME280;46188;52.324;8.032;2023-03-20T05:27:53;100651.69;;;7.60;100.00
60345;BME280;46188;52.324;8.032;2023-03-20T05:30:18;100650.84;;;7.61;100.00
60345;BME280;46188;52.324;8.032;2023-03-20T05:32:44;100654.44;;;7.64;100.00
60345;BME280;46188;52.324;8.032;2023-03-20T05:35:10;100651.84;;;7.66;100.00
60345;BME280;46188;52.324;8.032;2023-03-20T05:37:36;100648.34;;;7.65;100.00
60345;BME280;46188;52.324;8.032;2023-03-20T05:40:02;100652.72;;;7.65;100.00
60345;BME280;46188;52.324;8.032;2023-03-20T05:42:27;100647.47;;;7.65;100.00
60345;BME280;46188;52.324;8.032;2023-03-20T05:44:53;100649.06;;;7.60;100.00
60345;BME280;46188;52.324;8.032;2023-03-20T05:47:18;100650.72;;;7.56;100.00
60345;BME280;46188;52.324;8.032;2023-03-20T05:49:43;100658.66;;;7.57;100.00
60345;BME280;46188;52.324;8.032;2023-03-20T05:52:08;100659.56;;;7.58;100.00
60345;BME280;46188;52.324;8.032;2023-03-20T05:54:34;100658.66;;;7.57;100.00
60345;BME280;46188;52.324;8.032;2023-03-20T05:56:59;100655.16;;;7.57;100.00
60345;BME280;46188;52.324;8.032;2023-03-20T05:59:24;100652.53;;;7.57;100.00
60345;BME280;46188;52.324;8.032;2023-03-20T06:01:50;100659.50;;;7.56;100.00
60345;BME280;46188;52.324;8.032;2023-03-20T06:04:15;100652.38;;;7.52;100.00
60345;BME280;46188;52.324;8.032;2023-03-20T06:06:41;100661.03;;;7.48;100.00
60345;BME280;46188;52.324;8.032;2023-03-20T06:09:06;100660.22;;;7.51;100.00
60345;BME280;46188;52.324;8.032;2023-03-20T06:11:31;100659.34;;;7.50;100.00
60345;BME280;46188;52.324;8.032;2023-03-20T06:13:56;100665.47;;;7.51;100.00
60345;BME280;46188;52.324;8.032;2023-03-20T06:16:22;100669.06;;;7.54;100.00
60345;BME280;46188;52.324;8.032;2023-03-20T06:18:48;100673.38;;;7.52;100.00
60345;BME280;46188;52.324;8.032;2023-03-20T06:21:13;100663.75;;;7.51;100.00
60345;BME280;46188;52.324;8.032;2023-03-20T06:23:38;100664.63;;;7.52;100.00
60345;BME280;46188;52.324;8.032;2023-03-20T06:26:04;100662.84;;;7.51;100.00
60345;BME280;46188;52.324;8.032;2023-03-20T06:28:29;100667.09;;;7.46;100.00
60345;BME280;46188;52.324;8.032;2023-03-20T06:30:54;100662.66;;;7.43;100.00
60345;BME280;46188;52.324;8.032;2023-03-20T06:33:20;100674.88;;;7.43;100.00
60345;BME280;46188;52.324;8.032;2023-03-20T06:35:46;100682.72;;;7.43;100.00
60345;BME280;46188;52.324;8.032;2023-03-20T06:38:12;100685.34;;;7.43;100.00
60345;BME280;46188;52.324;8.032;2023-03-20T06:40:37;100680.94;;;7.40;100.00
60345;BME280;46188;52.324;8.032;2023-03-20T06:43:02;100687.00;;;7.39;100.00
60345;BME280;46188;52.324;8.032;2023-03-20T06:45:28;100692.25;;;7.39;100.00
60345;BME280;46188;52.324;8.032;2023-03-20T06:47:54;100686.94;;;7.36;100.00
60345;BME280;46188;52.324;8.032;2023-03-20T06:50:19;100694.84;;;7.37;100.00
60345;BME280;46188;52.324;8.032;2023-03-20T06:52:45;100688.72;;;7.37;100.00
60345;BME280;46188;52.324;8.032;2023-03-20T06:55:10;100692.22;;;7.37;100.00
60345;BME280;46188;52.324;8.032;2023-03-20T06:57:35;100694.94;;;7.41;100.00
60345;BME280;46188;52.324;8.032;2023-03-20T07:00:03;100703.75;;;7.44;100.00
60345;BME280;46188;52.324;8.032;2023-03-20T07:02:28;100706.44;;;7.46;100.00
60345;BME280;46188;52.324;8.032;2023-03-20T07:04:53;100715.13;;;7.45;100.00
60345;BME280;46188;52.324;8.032;2023-03-20T07:07:19;100704.69;;;7.46;100.00
60345;BME280;46188;52.324;8.032;2023-03-20T07:09:44;100703.75;;;7.44;100.00
60345;BME280;46188;52.324;8.032;2023-03-20T07:12:14;100710.75;;;7.44;100.00
60345;BME280;46188;52.324;8.032;2023-03-20T07:14:43;100712.59;;;7.48;100.00
60345;BME280;46188;52.324;8.032;2023-03-20T07:17:09;100708.34;;;7.53;100.00
60345;BME280;46188;52.324;8.032;2023-03-20T07:19:35;100725.06;;;7.55;100.00
60345;BME280;46188;52.324;8.032;2023-03-20T07:22:03;100719.84;;;7.56;100.00
60345;BME280;46188;52.324;8.032;2023-03-20T07:24:30;100724.09;;;7.53;100.00
60345;BME280;46188;52.324;8.032;2023-03-20T07:26:57;100732.97;;;7.56;100.00
60345;BME280;46188;52.324;8.032;2023-03-20T07:29:22;100728.59;;;7.57;100.00
60345;BME280;46188;52.324;8.032;2023-03-20T07:31:47;100729.47;;;7.57;100.00
60345;BME280;46188;52.324;8.032;2023-03-20T07:34:13;100728.59;;;7.57;100.00
60345;BME280;46188;52.324;8.032;2023-03-20T07:36:38;100737.34;;;7.57;100.00
60345;BME280;46188;52.324;8.032;2023-03-20T07:39:05;100741.75;;;7.58;100.00
60345;BME280;46188;52.324;8.032;2023-03-20T07:41:30;100728.00;;;7.67;100.00
60345;BME280;46188;52.324;8.032;2023-03-20T07:43:56;100727.16;;;7.68;100.00
60345;BME280;46188;52.324;8.032;2023-03-20T07:46:21;100728.91;;;7.69;100.00
60345;BME280;46188;52.324;8.032;2023-03-20T07:48:46;100729.03;;;7.74;100.00
60345;BME280;46188;52.324;8.032;2023-03-20T07:51:11;100743.22;;;7.81;100.00
60345;BME280;46188;52.324;8.032;2023-03-20T07:53:37;100733.50;;;7.76;100.00
60345;BME280;46188;52.324;8.032;2023-03-20T07:56:03;100737.00;;;7.77;100.00
60345;BME280;46188;52.324;8.032;2023-03-20T07:58:28;100734.16;;;7.69;100.00
60345;BME280;46188;52.324;8.032;2023-03-20T08:00:56;100740.25;;;7.67;100.00
60345;BME280;46188;52.324;8.032;2023-03-20T08:03:21;100729.91;;;7.73;100.00
60345;BME280;46188;52.324;8.032;2023-03-20T08:05:46;100723.75;;;7.72;100.00
60345;BME280;46188;52.324;8.032;2023-03-20T08:08:12;100742.22;;;7.75;100.00
60345;BME280;46188;52.324;8.032;2023-03-20T08:10:37;100730.75;;;7.72;100.00
60345;BME280;46188;52.324;8.032;2023-03-20T08:13:03;100729.94;;;7.74;100.00
60345;BME280;46188;52.324;8.032;2023-03-20T08:15:28;100737.00;;;7.77;100.00
60345;BME280;46188;52.324;8.032;2023-03-20T08:17:53;100743.25;;;7.82;100.00
60345;BME280;46188;52.324;8.032;2023-03-20T08:20:19;100748.72;;;7.90;100.00
60345;BME280;46188;52.324;8.032;2023-03-20T08:22:44;100741.78;;;7.92;100.00
60345;BME280;46188;52.324;8.032;2023-03-20T08:25:09;100760.19;;;7.93;100.00
60345;BME280;46188;52.324;8.032;2023-03-20T08:27:35;100748.56;;;7.84;100.00
60345;BME280;46188;52.324;8.032;2023-03-20T08:30:02;100743.38;;;7.87;100.00
60345;BME280;46188;52.324;8.032;2023-03-20T08:32:27;100738.31;;;7.93;100.00
60345;BME280;46188;52.324;8.032;2023-03-20T08:34:52;100728.78;;;7.97;100.00
60345;BME280;46188;52.324;8.032;2023-03-20T08:37:21;100740.34;;;8.05;100.00
60345;BME280;46188;52.324;8.032;2023-03-20T08:39:46;100741.31;;;8.08;100.00
60345;BME280;46188;52.324;8.032;2023-03-20T08:42:12;100746.56;;;8.08;100.00
60345;BME280;46188;52.324;8.032;2023-03-20T08:44:37;100742.19;;;8.09;100.00
60345;BME280;46188;52.324;8.032;2023-03-20T08:47:03;100739.72;;;8.15;100.00
60345;BME280;46188;52.324;8.032;2023-03-20T08:49:30;100744.03;;;8.11;100.00
60345;BME280;46188;52.324;8.032;2023-03-20T08:51:55;100753.81;;;8.19;100.00
60345;BME280;46188;52.324;8.032;2023-03-20T08:54:21;100746.78;;;8.16;100.00
60345;BME280;46188;52.324;8.032;2023-03-20T08:56:46;100745.16;;;8.21;100.00
60345;BME280;46188;52.324;8.032;2023-03-20T08:59:12;100747.91;;;8.27;100.00
60345;BME280;46188;52.324;8.032;2023-03-20T09:01:37;100747.03;;;8.27;100.00
60345;BME280;46188;52.324;8.032;2023-03-20T09:04:03;100744.44;;;8.28;100.00
60345;BME280;46188;52.324;8.032;2023-03-20T09:06:29;100748.97;;;8.36;100.00
60345;BME280;46188;52.324;8.032;2023-03-20T09:08:55;100750.78;;;8.37;100.00
60345;BME280;46188;52.324;8.032;2023-03-20T09:11:21;100755.94;;;8.34;100.00
60345;BME280;46188;52.324;8.032;2023-03-20T09:13:46;100749.81;;;8.33;100.00
60345;BME280;46188;52.324;8.032;2023-03-20T09:16:12;100748.97;;;8.34;100.00
60345;BME280;46188;52.324;8.032;2023-03-20T09:18:37;100753.41;;;8.37;100.00
60345;BME280;46188;52.324;8.032;2023-03-20T09:21:03;100750.72;;;8.35;100.00
60345;BME280;46188;52.324;8.032;2023-03-20T09:23:29;100748.03;;;8.32;100.00
60345;BME280;46188;52.324;8.032;2023-03-20T09:25:54;100755.19;;;8.38;100.00
60345;BME280;46188;52.324;8.032;2023-03-20T09:28:19;100758.00;;;8.45;100.00
60345;BME280;46188;52.324;8.032;2023-03-20T09:30:45;100778.16;;;8.45;100.00
60345;BME280;46188;52.324;8.032;2023-03-20T09:33:10;100756.06;;;8.38;100.00
60345;BME280;46188;52.324;8.032;2023-03-20T09:35:36;100771.16;;;8.45;100.00
60345;BME280;46188;52.324;8.032;2023-03-20T09:38:01;100754.50;;;8.45;100.00
60345;BME280;46188;52.324;8.032;2023-03-20T09:40:52;100766.09;;;8.53;100.00
60345;BME280;46188;52.324;8.032;2023-03-20T09:43:43;100768.78;;;8.56;100.00
60345;BME280;46188;52.324;8.032;2023-03-20T09:49:36;100759.25;;;8.60;100.00
60345;BME280;46188;52.324;8.032;2023-03-20T09:52:15;100749.94;;;8.74;100.00
60345;BME280;46188;52.324;8.032;2023-03-20T09:54:44;100759.97;;;8.91;100.00
60345;BME280;46188;52.324;8.032;2023-03-20T09:57:20;100757.50;;;9.00;100.00
60345;BME280;46188;52.324;8.032;2023-03-20T09:59:47;100768.84;;;8.96;100.00
60345;BME280;46188;52.324;8.032;2023-03-20T10:02:17;100761.16;;;9.07;100.00
60345;BME280;46188;52.324;8.032;2023-03-20T10:04:53;100754.06;;;9.02;100.00
60345;BME280;46188;52.324;8.032;2023-03-20T10:07:19;100767.03;;;8.95;100.00
60345;BME280;46188;52.324;8.032;2023-03-20T10:09:45;100765.28;;;8.94;100.00
60345;BME280;46188;52.324;8.032;2023-03-20T10:12:23;100762.50;;;8.88;99.35
60345;BME280;46188;52.324;8.032;2023-03-20T10:15:18;100753.75;;;8.87;98.91
60345;BME280;46188;52.324;8.032;2023-03-20T10:18:07;100757.59;;;9.03;95.95
60345;BME280;46188;52.324;8.032;2023-03-20T10:21:04;100739.47;;;9.15;96.17
60345;BME280;46188;52.324;8.032;2023-03-20T10:26:20;100724.47;;;9.55;93.62
60345;BME280;46188;52.324;8.032;2023-03-20T10:31:44;100737.03;;;9.70;91.49
60345;BME280;46188;52.324;8.032;2023-03-20T10:34:39;100717.66;;;9.67;91.88
60345;BME280;46188;52.324;8.032;2023-03-20T10:37:36;100714.44;;;9.83;90.68
60345;BME280;46188;52.324;8.032;2023-03-20T10:40:25;100725.38;;;10.05;91.80
60345;BME280;46188;52.324;8.032;2023-03-20T10:42:53;100718.59;;;10.21;91.84
60345;BME280;46188;52.324;8.032;2023-03-20T10:45:37;100730.06;;;10.24;89.96
60345;BME280;46188;52.324;8.032;2023-03-20T10:48:10;100724.50;;;10.07;86.07
60345;BME280;46188;52.324;8.032;2023-03-20T10:50:48;100718.13;;;9.94;84.60
60345;BME280;46188;52.324;8.032;2023-03-20T10:53:33;100715.22;;;9.77;83.34
60345;BME280;46188;52.324;8.032;2023-03-20T10:56:05;100719.53;;;9.74;85.13
60345;BME280;46188;52.324;8.032;2023-03-20T10:58:35;100715.31;;;9.82;84.90
60345;BME280;46188;52.324;8.032;2023-03-20T11:01:01;100724.09;;;9.84;85.01
60345;BME280;46188;52.324;8.032;2023-03-20T11:03:29;100731.81;;;9.73;84.57
60345;BME280;46188;52.324;8.032;2023-03-20T11:06:05;100720.22;;;9.64;81.66
60345;BME280;46188;52.324;8.032;2023-03-20T11:08:39;100721.91;;;9.58;82.62
60345;BME280;46188;52.324;8.032;2023-03-20T11:11:06;100714.78;;;9.54;81.29
60345;BME280;46188;52.324;8.032;2023-03-20T11:13:34;100712.09;;;9.51;81.67
60345;BME280;46188;52.324;8.032;2023-03-20T11:16:19;100714.66;;;9.48;81.86
60345;BME280;46188;52.324;8.032;2023-03-20T11:18:46;100711.94;;;9.42;81.51
60345;BME280;46188;52.324;8.032;2023-03-20T11:21:22;100705.75;;;9.41;82.00
60345;BME280;46188;52.324;8.032;2023-03-20T11:23:49;100704.94;;;9.44;83.02
60345;BME280;46188;52.324;8.032;2023-03-20T11:26:19;100706.06;;;9.57;83.44
60345;BME280;46188;52.324;8.032;2023-03-20T11:28:54;100701.63;;;9.54;83.48
60345;BME280;46188;52.324;8.032;2023-03-20T11:31:40;100706.09;;;9.58;82.19
60345;BME280;46188;52.324;8.032;2023-03-20T11:36:32;100699.69;;;9.44;82.72
60345;BME280;46188;52.324;8.032;2023-03-20T11:39:13;100690.03;;;9.45;83.17
60345;BME280;46188;52.324;8.032;2023-03-20T11:41:49;100687.44;;;9.46;84.40
60345;BME280;46188;52.324;8.032;2023-03-20T11:44:31;100690.84;;;9.40;83.45
60345;BME280;46188;52.324;8.032;2023-03-20T11:47:11;100693.22;;;9.28;82.33
60345;BME280;46188;52.324;8.032;2023-03-20T11:49:53;100691.22;;;9.16;83.50
60345;BME280;46188;52.324;8.032;2023-03-20T11:52:21;100689.44;;;9.14;83.54
60345;BME280;46188;52.324;8.032;2023-03-20T11:54:51;100704.31;;;9.13;83.49
60345;BME280;46188;52.324;8.032;2023-03-20T11:57:37;100691.91;;;9.06;83.78
60345;BME280;46188;52.324;8.032;2023-03-20T12:00:19;100705.91;;;9.05;83.64
60345;BME280;46188;52.324;8.032;2023-03-20T12:02:45;100699.56;;;8.95;83.15
60345;BME280;46188;52.324;8.032;2023-03-20T12:05:31;100709.06;;;8.89;83.84
60345;BME280;46188;52.324;8.032;2023-03-20T12:08:22;100703.94;;;8.95;84.68
60345;BME280;46188;52.324;8.032;2023-03-20T12:11:02;100702.28;;;9.00;84.52
60345;BME280;46188;52.324;8.032;2023-03-20T12:13:36;100696.22;;;9.02;84.67
60345;BME280;46188;52.324;8.032;2023-03-20T12:16:06;100705.03;;;9.04;85.06
60345;BME280;46188;52.324;8.032;2023-03-20T12:18:53;100686.78;;;9.12;86.49
60345;BME280;46188;52.324;8.032;2023-03-20T12:21:37;100694.81;;;9.20;86.22
60345;BME280;46188;52.324;8.032;2023-03-20T12:26:57;100696.44;;;9.13;84.95
60345;BME280;46188;52.324;8.032;2023-03-20T12:29:31;100684.13;;;9.11;84.70
60345;BME280;46188;52.324;8.032;2023-03-20T12:32:04;100684.94;;;9.08;84.38
60345;BME280;46188;52.324;8.032;2023-03-20T12:34:40;100679.56;;;9.02;84.63
60345;BME280;46188;52.324;8.032;2023-03-20T12:37:10;100681.22;;;8.98;84.73
60345;BME280;46188;52.324;8.032;2023-03-20T12:39:39;100683.84;;;8.98;84.60
60345;BME280;46188;52.324;8.032;2023-03-20T12:45:22;100697.78;;;8.93;83.23
60345;BME280;46188;52.324;8.032;2023-03-20T12:50:48;100690.78;;;8.95;83.75
60345;BME280;46188;52.324;8.032;2023-03-20T12:56:21;100687.44;;;9.00;84.83
60345;BME280;46188;52.324;8.032;2023-03-20T12:58:58;100689.97;;;8.97;84.00
60345;BME280;46188;52.324;8.032;2023-03-20T13:01:53;100698.53;;;8.87;83.43
60345;BME280;46188;52.324;8.032;2023-03-20T13:04:42;100687.91;;;8.82;84.59
60345;BME280;46188;52.324;8.032;2023-03-20T13:07:34;100694.09;;;8.84;84.82
60345;BME280;46188;52.324;8.032;2023-03-20T13:10:18;100679.22;;;8.86;84.75
60345;BME280;46188;52.324;8.032;2023-03-20T13:13:10;100679.09;;;8.80;83.85
60345;BME280;46188;52.324;8.032;2023-03-20T13:21:21;100674.47;;;8.68;84.43
60345;BME280;46188;52.324;8.032;2023-03-20T13:26:35;100684.16;;;8.71;85.08
60345;BME280;46188;52.324;8.032;2023-03-20T13:29:16;100675.47;;;8.75;85.53
60345;BME280;46188;52.324;8.032;2023-03-20T13:32:13;100675.66;;;8.83;86.29
60345;BME280;46188;52.324;8.032;2023-03-20T13:37:45;100671.44;;;8.91;84.75
60345;BME280;46188;52.324;8.032;2023-03-20T13:40:31;100660.00;;;8.89;84.20
60345;BME280;46188;52.324;8.032;2023-03-20T13:43:19;100659.94;;;8.86;84.83
60345;BME280;46188;52.324;8.032;2023-03-20T13:45:49;100654.66;;;8.84;84.45
60345;BME280;46188;52.324;8.032;2023-03-20T13:48:29;100651.97;;;8.81;85.22
60345;BME280;46188;52.324;8.032;2023-03-20T13:53:29;100659.06;;;8.85;85.99
60345;BME280;46188;52.324;8.032;2023-03-20T14:01:49;100659.03;;;8.84;87.90
60345;BME280;46188;52.324;8.032;2023-03-20T14:04:20;100656.41;;;8.84;88.41
60345;BME280;46188;52.324;8.032;2023-03-20T14:06:48;100644.34;;;8.94;88.69
60345;BME280;46188;52.324;8.032;2023-03-20T14:09:31;100643.56;;;8.99;89.35
60345;BME280;46188;52.324;8.032;2023-03-20T14:12:04;100642.78;;;9.05;89.95
60345;BME280;46188;52.324;8.032;2023-03-20T14:17:25;100656.91;;;9.10;90.29
60345;BME280;46188;52.324;8.032;2023-03-20T14:19:52;100650.72;;;9.07;90.25